createdAt,value
2023-10-09T00:01:19.408Z,13.88
2023-10-09T00:06:39.359Z,15.60
2023-10-09T00:11:43.789Z,15.57
2023-10-09T00:16:51.045Z,15.85
2023-10-09T00:21:57.731Z,17.58
2023-10-09T00:27:14.657Z,18.45
2023-10-09T00:32:20.577Z,16.70
2023-10-09T00:37:26.709Z,17.92
2023-10-09T00:42:36.874Z,18.45
2023-10-09T00:47:42.746Z,18.85
2023-10-09T00:52:55.999Z,18.55
2023-10-09T00:58:01.761Z,18.92
2023-10-09T01:03:24.615Z,21.05
2023-10-09T01:08:45.380Z,19.48
2023-10-09T01:13:51.909Z,19.15
2023-10-09T01:19:00.118Z,20.00
2023-10-09T01:24:04.938Z,17.75
2023-10-09T01:29:16.881Z,17.70
2023-10-09T01:34:26.099Z,18.35
2023-10-09T01:39:32.294Z,17.27
2023-10-09T01:44:45.248Z,16.42
2023-10-09T01:56:16.902Z,15.93
2023-10-09T02:01:22.991Z,16.00
2023-10-09T02:06:28.136Z,15.13
2023-10-09T02:11:38.432Z,14.50
2023-10-09T02:16:44.138Z,14.10
2023-10-09T02:21:48.810Z,14.57
2023-10-09T02:26:53.023Z,14.07
2023-10-09T02:32:03.166Z,13.75
2023-10-09T02:37:14.774Z,13.82
2023-10-09T02:42:25.315Z,13.10
2023-10-09T02:47:39.544Z,11.70
2023-10-09T02:52:43.481Z,11.73
2023-10-09T02:57:53.555Z,10.80
2023-10-09T03:03:00.238Z,10.05
2023-10-09T03:08:04.600Z,11.18
2023-10-09T03:13:08.501Z,10.95
2023-10-09T03:18:15.946Z,11.02
2023-10-09T03:23:19.999Z,10.40
2023-10-09T03:28:24.230Z,11.75
2023-10-09T03:33:28.646Z,10.93
2023-10-09T03:38:36.913Z,9.52
2023-10-09T03:43:42.873Z,9.98
2023-10-09T03:48:48.622Z,8.25
2023-10-09T03:53:56.922Z,9.55
2023-10-09T03:59:02.236Z,8.98
2023-10-09T04:04:12.892Z,8.95
2023-10-09T04:09:22.864Z,13.55
2023-10-09T04:19:50.073Z,9.32
2023-10-09T04:24:54.556Z,9.25
2023-10-09T04:29:58.732Z,9.30
2023-10-09T04:35:24.325Z,11.63
2023-10-09T04:40:50.157Z,12.13
2023-10-09T04:46:12.465Z,9.93
2023-10-09T04:51:23.603Z,10.20
2023-10-09T04:56:33.562Z,11.70
2023-10-09T05:01:47.179Z,9.57
2023-10-09T05:06:57.363Z,11.98
2023-10-09T05:12:11.878Z,10.93
2023-10-09T05:17:18.852Z,10.10
2023-10-09T05:22:38.344Z,10.30
2023-10-09T05:27:52.477Z,11.00
2023-10-09T05:33:00.778Z,10.52
2023-10-09T05:38:06.867Z,10.50
2023-10-09T05:43:31.509Z,9.93
2023-10-09T05:48:55.601Z,8.57
2023-10-09T05:54:18.421Z,8.55
2023-10-09T05:59:51.668Z,8.00
2023-10-09T06:04:59.706Z,6.95
2023-10-09T06:10:19.185Z,7.10
2023-10-09T06:15:53.250Z,7.32
2023-10-09T06:21:08.779Z,8.82
2023-10-09T06:26:25.931Z,29.80
2023-10-09T06:31:50.050Z,11.93
2023-10-09T06:36:57.071Z,10.20
2023-10-09T06:42:11.717Z,8.45
2023-10-09T06:47:20.678Z,6.20
2023-10-09T06:52:44.593Z,9.88
2023-10-09T06:57:50.874Z,6.55
2023-10-09T07:02:56.327Z,10.55
2023-10-09T07:08:20.132Z,6.10
2023-10-09T07:13:26.676Z,8.32
2023-10-09T07:18:50.922Z,15.18
2023-10-09T07:23:59.313Z,6.50
2023-10-09T07:29:17.827Z,11.50
2023-10-09T07:34:45.057Z,11.23
2023-10-09T07:39:58.996Z,12.23
2023-10-09T07:45:23.571Z,8.52
2023-10-09T07:50:40.135Z,6.43
2023-10-09T07:56:08.315Z,5.75
2023-10-09T08:01:18.405Z,6.93
2023-10-09T08:07:04.860Z,4.95
2023-10-09T08:12:36.881Z,3.92
2023-10-09T08:17:40.716Z,4.55
2023-10-09T08:22:45.092Z,3.88
2023-10-09T08:27:56.133Z,4.63
2023-10-09T08:38:12.462Z,4.32
2023-10-09T08:43:20.844Z,3.78
2023-10-09T08:48:28.769Z,3.72
2023-10-09T08:53:35.008Z,3.22
2023-10-09T08:58:40.176Z,3.33
2023-10-09T09:03:45.603Z,2.97
2023-10-09T09:08:49.875Z,3.33
2023-10-09T09:14:08.367Z,3.80
2023-10-09T09:19:12.578Z,3.20
2023-10-09T09:24:23.105Z,3.10
2023-10-09T09:29:39.224Z,3.50
2023-10-09T09:34:51.492Z,2.65
2023-10-09T09:40:02.754Z,2.45
2023-10-09T09:45:13.168Z,2.22
2023-10-09T09:50:26.512Z,2.20
2023-10-09T09:55:43.894Z,2.72
2023-10-09T10:00:55.057Z,2.45
2023-10-09T10:05:59.802Z,2.40
2023-10-09T10:11:06.894Z,2.72
2023-10-09T10:16:22.150Z,2.20
2023-10-09T10:21:34.962Z,2.80
2023-10-09T10:26:39.262Z,2.53
2023-10-09T10:31:58.298Z,3.80
2023-10-09T10:37:02.392Z,3.20
2023-10-09T10:42:07.657Z,3.85
2023-10-09T10:47:26.918Z,2.97
2023-10-09T10:52:46.859Z,2.40
2023-10-09T10:58:03.964Z,3.00
2023-10-09T11:03:19.954Z,3.03
2023-10-09T11:08:34.789Z,2.53
2023-10-09T11:13:54.388Z,2.90
2023-10-09T11:18:59.421Z,3.30
2023-10-09T11:24:23.155Z,3.13
2023-10-09T11:29:45.675Z,3.40
2023-10-09T11:35:11.262Z,5.88
2023-10-09T11:40:52.094Z,4.68
2023-10-09T11:46:13.330Z,6.15
2023-10-09T11:51:23.843Z,5.45
2023-10-09T11:56:30.560Z,4.38
2023-10-09T12:01:37.597Z,22.88
2023-10-09T12:06:44.279Z,30.02
2023-10-09T12:12:04.303Z,41.75
2023-10-09T12:17:11.918Z,39.70
2023-10-09T12:22:18.086Z,16.23
2023-10-09T12:27:24.897Z,10.73
2023-10-09T12:32:29.277Z,35.03
2023-10-09T12:37:33.285Z,18.02
2023-10-09T12:42:37.890Z,12.10
2023-10-09T12:47:44.222Z,14.73
2023-10-09T12:52:52.479Z,27.63
2023-10-09T12:57:56.820Z,51.88
2023-10-09T13:03:15.759Z,60.05
2023-10-09T13:08:23.066Z,28.55
2023-10-09T13:13:48.782Z,18.52
2023-10-09T13:18:54.483Z,10.43
2023-10-09T13:23:59.666Z,8.90
2023-10-09T13:29:05.727Z,9.65
2023-10-09T13:34:12.305Z,9.80
2023-10-09T13:39:28.631Z,9.25
2023-10-09T13:44:38.208Z,6.63
2023-10-09T13:49:43.927Z,6.20
2023-10-09T13:54:55.501Z,5.35
2023-10-09T14:00:01.932Z,5.95
2023-10-09T14:05:10.375Z,5.45
2023-10-09T14:10:20.255Z,6.63
2023-10-09T14:15:25.052Z,5.03
2023-10-09T14:20:33.534Z,4.93
2023-10-09T14:25:41.917Z,4.97
2023-10-09T14:30:51.178Z,4.20
2023-10-09T14:35:56.892Z,6.60
2023-10-09T14:41:01.849Z,5.63
2023-10-09T14:46:12.537Z,5.82
2023-10-09T14:51:17.210Z,5.47
2023-10-09T14:56:30.580Z,5.57
2023-10-09T15:01:34.787Z,5.30
2023-10-09T15:06:40.185Z,5.88
2023-10-09T15:11:44.190Z,5.15
2023-10-09T15:16:50.009Z,5.60
2023-10-09T15:21:54.147Z,4.82
2023-10-09T15:27:01.750Z,5.07
2023-10-09T15:32:16.548Z,7.75
2023-10-09T15:37:21.598Z,6.60
2023-10-09T15:42:25.894Z,5.38
2023-10-09T15:47:29.884Z,5.00
2023-10-09T15:52:34.103Z,3.90
2023-10-09T15:57:38.405Z,4.38
2023-10-09T16:02:43.871Z,4.00
2023-10-09T16:07:48.309Z,3.70
2023-10-09T16:12:55.509Z,3.63
2023-10-09T16:18:04.932Z,3.45
2023-10-09T16:23:11.668Z,4.00
2023-10-09T16:28:17.591Z,4.53
2023-10-09T16:33:22.268Z,4.88
2023-10-09T16:38:27.309Z,4.18
2023-10-09T16:43:32.198Z,4.20
2023-10-09T16:48:41.846Z,4.05
2023-10-09T16:58:54.106Z,4.28
2023-10-09T17:03:59.945Z,4.05
2023-10-09T17:09:08.698Z,3.85
2023-10-09T17:14:17.687Z,3.53
2023-10-09T17:19:22.206Z,4.18
2023-10-09T17:24:26.278Z,3.70
2023-10-09T17:29:30.217Z,3.90
2023-10-09T17:34:35.944Z,3.60
2023-10-09T17:39:40.473Z,3.47
2023-10-09T17:44:44.417Z,3.33
2023-10-09T17:49:48.856Z,3.42
2023-10-09T17:54:54.198Z,3.08
2023-10-09T17:59:58.181Z,3.35
2023-10-09T18:05:02.868Z,3.60
2023-10-09T18:10:08.142Z,3.58
2023-10-09T18:15:15.174Z,3.30
2023-10-09T18:20:22.660Z,3.47
2023-10-09T18:25:27.637Z,2.92
2023-10-09T18:30:33.309Z,3.30
2023-10-09T18:35:39.936Z,2.83
2023-10-09T18:40:48.902Z,2.90
2023-10-09T18:45:53.094Z,3.17
2023-10-09T18:51:00.212Z,3.15
2023-10-09T18:56:07.530Z,2.97
2023-10-09T19:01:17.291Z,3.17
2023-10-09T19:06:25.648Z,3.28
2023-10-09T19:11:31.714Z,3.05
2023-10-09T19:16:35.973Z,3.22
2023-10-09T19:21:41.699Z,2.92
2023-10-09T19:26:45.896Z,3.28
2023-10-09T19:31:52.736Z,3.10
2023-10-09T19:36:57.175Z,3.10
2023-10-09T19:42:01.239Z,2.85
2023-10-09T19:47:07.571Z,2.67
2023-10-09T19:52:11.468Z,3.45
2023-10-09T19:57:15.481Z,3.45
2023-10-09T20:02:19.565Z,3.50
2023-10-09T20:07:23.452Z,4.53
2023-10-09T20:12:27.980Z,2.90
2023-10-09T20:17:33.139Z,3.20
2023-10-09T20:22:39.520Z,3.75
2023-10-09T20:27:46.305Z,3.30
2023-10-09T20:32:50.215Z,3.28
2023-10-09T20:38:03.324Z,3.78
2023-10-09T20:43:07.277Z,3.45
2023-10-09T20:48:11.168Z,3.42
2023-10-09T20:53:15.741Z,3.20
2023-10-09T20:58:19.754Z,2.95
2023-10-09T21:03:24.644Z,3.35
2023-10-09T21:08:28.873Z,3.03
2023-10-09T21:13:33.440Z,4.03
2023-10-09T21:18:37.535Z,3.67
2023-10-09T21:23:43.518Z,3.17
2023-10-09T21:28:52.346Z,2.95
2023-10-09T21:33:58.892Z,3.75
2023-10-09T21:39:02.715Z,3.53
2023-10-09T21:44:09.388Z,3.10
2023-10-09T21:49:13.661Z,3.53
2023-10-09T21:54:18.346Z,2.97
2023-10-09T21:59:22.207Z,3.42
2023-10-09T22:04:27.706Z,3.47
2023-10-09T22:09:31.624Z,3.67
2023-10-09T22:14:38.543Z,3.38
2023-10-09T22:19:43.845Z,3.13
2023-10-09T22:24:50.709Z,3.83
2023-10-09T22:29:57.456Z,3.20
2023-10-09T22:35:02.418Z,3.75
2023-10-09T22:40:22.783Z,3.55
2023-10-09T22:45:33.962Z,3.03
2023-10-09T22:50:38.140Z,3.40
2023-10-09T23:02:01.474Z,3.45
2023-10-09T23:07:16.344Z,3.00
2023-10-09T23:12:25.699Z,3.25
2023-10-09T23:17:49.620Z,3.15
2023-10-09T23:22:54.518Z,3.70
2023-10-09T23:28:18.912Z,3.47
2023-10-09T23:33:22.768Z,3.28
2023-10-09T23:38:29.926Z,3.97
2023-10-09T23:43:36.512Z,3.30
2023-10-09T23:48:41.314Z,3.00
2023-10-09T23:53:48.490Z,3.33
2023-10-09T23:58:53.731Z,3.88
